createdAt,value
2019-03-26T00:00:39.562Z,0
2019-03-26T00:01:49.488Z,0
2019-03-26T00:02:59.407Z,0
2019-03-26T00:04:15.566Z,0
2019-03-26T00:05:25.543Z,0
2019-03-26T00:06:35.458Z,0
2019-03-26T00:07:45.377Z,0
2019-03-26T00:08:55.309Z,0
2019-03-26T00:10:05.263Z,0
2019-03-26T00:11:15.238Z,0
2019-03-26T00:12:25.153Z,0
2019-03-26T00:13:34.818Z,0
2019-03-26T00:14:44.742Z,0
2019-03-26T00:15:54.672Z,0
2019-03-26T00:17:04.705Z,0
2019-03-26T00:18:14.628Z,0
2019-03-26T00:19:24.553Z,0
2019-03-26T00:20:34.484Z,0
2019-03-26T00:21:44.397Z,0
2019-03-26T00:22:54.489Z,0
2019-03-26T00:24:04.415Z,0
2019-03-26T00:25:14.334Z,0
2019-03-26T00:26:24.255Z,0
2019-03-26T00:27:34.174Z,0
2019-03-26T00:28:44.206Z,0
2019-03-26T00:29:54.132Z,0
2019-03-26T00:31:04.048Z,0
2019-03-26T00:32:13.967Z,0
2019-03-26T00:33:35.606Z,0
2019-03-26T00:34:46.432Z,0
2019-03-26T00:35:56.458Z,0
2019-03-26T00:37:06.391Z,0
2019-03-26T00:38:16.064Z,0
2019-03-26T00:39:26.002Z,0
2019-03-26T00:40:35.977Z,0
2019-03-26T00:41:45.899Z,0
2019-03-26T00:42:55.828Z,0
2019-03-26T00:44:05.745Z,0
2019-03-26T00:45:15.668Z,0
2019-03-26T00:46:25.686Z,0
2019-03-26T00:47:35.610Z,0
2019-03-26T00:48:45.532Z,0
2019-03-26T00:49:55.450Z,0
2019-03-26T00:51:05.424Z,0
2019-03-26T00:52:15.340Z,0
2019-03-26T00:53:25.007Z,0
2019-03-26T00:54:34.941Z,0
2019-03-26T00:55:44.869Z,0
2019-03-26T00:56:54.789Z,0
2019-03-26T00:58:06.485Z,0
2019-03-26T00:59:16.413Z,0
2019-03-26T01:00:26.356Z,0
2019-03-26T01:01:36.272Z,0
2019-03-26T01:02:46.194Z,0
2019-03-26T01:03:57.625Z,0
2019-03-26T01:05:07.562Z,0
2019-03-26T01:06:17.488Z,0
2019-03-26T01:07:27.413Z,0
2019-03-26T01:08:37.093Z,0
2019-03-26T01:09:47.111Z,0
2019-03-26T01:10:57.030Z,0
2019-03-26T01:12:06.984Z,0
2019-03-26T01:13:16.661Z,0
2019-03-26T01:14:26.578Z,0
2019-03-26T01:15:36.646Z,0
2019-03-26T01:16:46.568Z,0
2019-03-26T01:17:56.488Z,0
2019-03-26T01:19:06.406Z,0
2019-03-26T01:20:16.071Z,0
2019-03-26T01:21:26.088Z,0
2019-03-26T01:22:36.006Z,0
2019-03-26T01:23:45.923Z,0
2019-03-26T01:24:55.838Z,0
2019-03-26T01:26:05.769Z,0
2019-03-26T01:27:15.794Z,0
2019-03-26T01:28:25.718Z,0
2019-03-26T01:29:35.638Z,0
2019-03-26T01:30:45.561Z,0
2019-03-26T01:31:55.473Z,0
2019-03-26T01:33:05.440Z,0
2019-03-26T01:34:15.103Z,0
2019-03-26T01:35:25.026Z,0
2019-03-26T01:36:34.954Z,0
2019-03-26T01:37:44.624Z,0
2019-03-26T01:38:54.710Z,0
2019-03-26T01:40:04.630Z,0
2019-03-26T01:41:14.547Z,0
2019-03-26T01:42:24.462Z,0
2019-03-26T01:43:34.375Z,0
2019-03-26T01:44:44.391Z,0
2019-03-26T01:45:54.302Z,0
2019-03-26T01:47:04.220Z,0
2019-03-26T01:48:14.142Z,0
2019-03-26T01:49:24.057Z,0
2019-03-26T01:50:34.023Z,0
2019-03-26T01:51:43.938Z,0
2019-03-26T01:52:53.871Z,0
2019-03-26T01:54:03.815Z,0
2019-03-26T01:55:13.764Z,0
2019-03-26T01:56:23.778Z,0
2019-03-26T01:57:33.706Z,0
2019-03-26T01:58:43.635Z,0
2019-03-26T01:59:53.296Z,0
2019-03-26T02:01:03.224Z,0
2019-03-26T02:02:13.245Z,0
2019-03-26T02:03:23.169Z,0
2019-03-26T02:04:33.092Z,0
2019-03-26T02:05:43.020Z,0
2019-03-26T02:06:52.954Z,0
2019-03-26T02:08:02.958Z,0
2019-03-26T02:09:12.888Z,0
2019-03-26T02:10:22.810Z,0
2019-03-26T02:11:32.736Z,0
2019-03-26T02:12:42.651Z,0
2019-03-26T02:13:52.568Z,0
2019-03-26T02:15:02.790Z,0
2019-03-26T02:16:12.736Z,0
2019-03-26T02:17:22.656Z,0
2019-03-26T02:18:32.578Z,0
2019-03-26T02:19:42.595Z,0
2019-03-26T02:20:52.512Z,0
2019-03-26T02:22:02.433Z,0
2019-03-26T02:23:12.358Z,0
2019-03-26T02:24:22.289Z,0
2019-03-26T02:25:32.380Z,0
2019-03-26T02:26:42.293Z,0
2019-03-26T02:27:52.216Z,0
2019-03-26T02:29:02.133Z,0
2019-03-26T02:30:12.214Z,0
2019-03-26T02:31:22.251Z,0
2019-03-26T02:32:32.193Z,0
2019-03-26T02:33:42.126Z,0
2019-03-26T02:34:52.203Z,0
2019-03-26T02:36:02.138Z,0
2019-03-26T02:37:12.067Z,0
2019-03-26T02:38:22.038Z,0
2019-03-26T02:39:31.963Z,0
2019-03-26T02:40:41.888Z,0
2019-03-26T02:41:51.852Z,0
2019-03-26T02:43:01.881Z,0
2019-03-26T02:44:11.817Z,0
2019-03-26T02:45:21.759Z,0
2019-03-26T02:46:31.694Z,0
2019-03-26T02:47:41.772Z,0
2019-03-26T02:48:51.809Z,0
2019-03-26T02:50:01.755Z,0
2019-03-26T02:51:11.729Z,0
2019-03-26T02:52:21.661Z,0
2019-03-26T02:53:31.782Z,0
2019-03-26T02:54:41.473Z,0
2019-03-26T02:55:51.155Z,0
2019-03-26T02:57:00.851Z,0
2019-03-26T02:58:10.790Z,0
2019-03-26T02:59:20.721Z,0
2019-03-26T03:00:30.762Z,0
2019-03-26T03:01:40.693Z,0
2019-03-26T03:02:50.611Z,0
2019-03-26T03:04:00.545Z,0
2019-03-26T03:05:10.495Z,0
2019-03-26T03:06:20.436Z,0
2019-03-26T03:07:30.400Z,0
2019-03-26T03:08:40.352Z,0
2019-03-26T03:09:50.334Z,0
2019-03-26T03:11:00.261Z,0
2019-03-26T03:12:10.312Z,0
2019-03-26T03:13:20.238Z,0
2019-03-26T03:14:30.179Z,0
2019-03-26T03:15:40.226Z,0
2019-03-26T03:16:50.258Z,0
2019-03-26T03:18:00.312Z,0
2019-03-26T03:19:10.258Z,0
2019-03-26T03:20:19.961Z,0
2019-03-26T03:21:29.906Z,0
2019-03-26T03:22:39.595Z,0
2019-03-26T03:23:49.526Z,0
2019-03-26T03:24:59.461Z,0
2019-03-26T03:26:09.411Z,0
2019-03-26T03:27:19.347Z,0
2019-03-26T03:28:29.139Z,0
2019-03-26T03:29:39.179Z,0
2019-03-26T03:30:49.162Z,0
2019-03-26T03:31:59.174Z,0
2019-03-26T03:33:09.154Z,0
2019-03-26T03:34:19.231Z,0
2019-03-26T03:35:29.219Z,0
2019-03-26T03:36:39.151Z,0
2019-03-26T03:37:49.075Z,0
2019-03-26T03:38:59.007Z,0
2019-03-26T03:40:09.100Z,0
2019-03-26T03:41:19.081Z,0
2019-03-26T03:42:29.019Z,0
2019-03-26T03:43:38.975Z,0
2019-03-26T03:44:48.902Z,0
2019-03-26T03:45:59.021Z,0
2019-03-26T03:47:09.053Z,0
2019-03-26T03:48:19.021Z,0
2019-03-26T03:49:28.989Z,0
2019-03-26T03:50:38.908Z,0
2019-03-26T03:51:48.870Z,0
2019-03-26T03:52:58.791Z,0
2019-03-26T03:54:08.767Z,0
2019-03-26T03:55:18.470Z,0
2019-03-26T03:56:28.398Z,0
2019-03-26T03:57:38.326Z,0
2019-03-26T03:58:48.447Z,0
2019-03-26T03:59:58.370Z,0
2019-03-26T04:01:08.515Z,0
2019-03-26T04:02:18.465Z,0
2019-03-26T04:03:28.394Z,0
2019-03-26T04:04:38.322Z,0
2019-03-26T04:05:48.340Z,0
2019-03-26T04:06:58.279Z,0
2019-03-26T04:08:08.225Z,0
2019-03-26T04:09:18.158Z,0
2019-03-26T04:10:28.145Z,0
2019-03-26T04:11:38.101Z,0
2019-03-26T04:12:48.049Z,0
2019-03-26T04:13:57.972Z,0
2019-03-26T04:15:07.960Z,0
2019-03-26T04:16:18.036Z,0
2019-03-26T04:17:27.960Z,0
2019-03-26T04:18:37.892Z,0
2019-03-26T04:19:47.562Z,0
2019-03-26T04:20:57.494Z,0
2019-03-26T04:22:07.437Z,0
2019-03-26T04:23:17.410Z,0
2019-03-26T04:24:27.367Z,0
2019-03-26T04:25:37.340Z,0
2019-03-26T04:26:47.322Z,0
2019-03-26T04:27:57.412Z,0
2019-03-26T04:29:07.440Z,0
2019-03-26T04:30:17.398Z,0
2019-03-26T04:31:27.334Z,0
2019-03-26T04:32:37.279Z,0
2019-03-26T04:33:47.349Z,0
2019-03-26T04:34:57.300Z,0
2019-03-26T04:36:07.226Z,0
2019-03-26T04:37:17.142Z,0
2019-03-26T04:38:27.067Z,0
2019-03-26T04:39:36.758Z,0
2019-03-26T04:40:46.679Z,0
2019-03-26T04:41:56.626Z,0
2019-03-26T04:43:06.560Z,0
2019-03-26T04:44:16.506Z,0
2019-03-26T04:45:26.635Z,0
2019-03-26T04:46:36.560Z,5
2019-03-26T04:47:46.482Z,5
2019-03-26T04:48:56.395Z,5
2019-03-26T04:50:06.306Z,5
2019-03-26T04:51:16.221Z,5
2019-03-26T04:52:25.882Z,5
2019-03-26T04:53:38.995Z,5
2019-03-26T04:54:48.944Z,10
2019-03-26T04:55:58.863Z,10
2019-03-26T04:57:08.886Z,10
2019-03-26T04:58:18.870Z,10
2019-03-26T04:59:28.796Z,10
2019-03-26T05:00:38.741Z,10
2019-03-26T05:01:48.688Z,15
2019-03-26T05:02:58.715Z,15
2019-03-26T05:04:08.396Z,15
2019-03-26T05:05:21.453Z,15
2019-03-26T05:06:44.559Z,20
2019-03-26T05:07:54.591Z,20
2019-03-26T05:09:04.510Z,20
2019-03-26T05:10:14.178Z,25
2019-03-26T05:11:24.098Z,25
2019-03-26T05:12:34.015Z,30
2019-03-26T05:13:43.974Z,30
2019-03-26T05:14:53.904Z,35
2019-03-26T05:16:03.827Z,35
2019-03-26T05:17:13.778Z,35
2019-03-26T05:18:23.691Z,35
2019-03-26T05:19:33.672Z,35
2019-03-26T05:20:43.591Z,40
2019-03-26T05:21:53.515Z,40
2019-03-26T05:23:03.547Z,40
2019-03-26T05:24:13.469Z,45
2019-03-26T05:25:23.388Z,45
2019-03-26T05:26:33.306Z,50
2019-03-26T05:27:54.976Z,50
2019-03-26T05:29:04.892Z,55
2019-03-26T05:30:14.933Z,55
2019-03-26T05:31:24.854Z,60
2019-03-26T05:32:34.771Z,65
2019-03-26T05:33:44.696Z,65
2019-03-26T05:34:54.617Z,65
2019-03-26T05:36:04.650Z,70
2019-03-26T05:37:14.585Z,70
2019-03-26T05:38:24.508Z,75
2019-03-26T05:39:34.428Z,80
2019-03-26T05:40:44.347Z,80
2019-03-26T05:41:54.282Z,85
2019-03-26T05:43:03.958Z,85
2019-03-26T05:44:13.883Z,90
2019-03-26T05:45:23.810Z,90
2019-03-26T05:46:33.737Z,95
2019-03-26T05:47:43.672Z,95
2019-03-26T05:48:53.590Z,95
2019-03-26T05:50:03.524Z,100
2019-03-26T05:51:13.438Z,100
2019-03-26T05:52:23.352Z,100
2019-03-26T05:53:33.331Z,105
2019-03-26T05:54:43.254Z,110
2019-03-26T05:55:53.173Z,115
2019-03-26T05:57:03.108Z,120
2019-03-26T05:58:13.034Z,120
2019-03-26T05:59:23.051Z,125
2019-03-26T06:00:32.969Z,130
2019-03-26T06:01:42.886Z,130
2019-03-26T06:02:52.805Z,130
2019-03-26T06:04:02.723Z,135
2019-03-26T06:05:12.742Z,140
2019-03-26T06:06:22.663Z,140
2019-03-26T06:07:33.860Z,145
2019-03-26T06:08:43.777Z,155
2019-03-26T06:09:53.699Z,150
2019-03-26T06:11:03.722Z,150
2019-03-26T06:12:13.721Z,155
2019-03-26T06:13:23.650Z,155
2019-03-26T06:14:33.571Z,155
2019-03-26T06:15:43.549Z,155
2019-03-26T06:16:53.466Z,155
2019-03-26T06:18:04.862Z,160
2019-03-26T06:19:14.796Z,160
2019-03-26T06:20:24.711Z,165
2019-03-26T06:21:34.417Z,165
2019-03-26T06:22:44.482Z,165
2019-03-26T06:23:56.173Z,165
2019-03-26T06:25:06.107Z,170
2019-03-26T06:26:16.043Z,170
2019-03-26T06:27:25.963Z,175
2019-03-26T06:28:35.979Z,175
2019-03-26T06:29:45.735Z,175
2019-03-26T06:30:55.672Z,180
2019-03-26T06:32:05.604Z,180
2019-03-26T06:33:15.527Z,180
2019-03-26T06:34:25.307Z,185
2019-03-26T06:35:35.252Z,185
2019-03-26T06:36:45.167Z,190
2019-03-26T06:37:55.100Z,195
2019-03-26T06:39:05.020Z,195
2019-03-26T06:40:15.034Z,200
2019-03-26T06:41:24.703Z,205
2019-03-26T06:42:34.632Z,200
2019-03-26T06:43:44.556Z,200
2019-03-26T06:44:54.476Z,205
2019-03-26T06:46:04.448Z,205
2019-03-26T06:47:14.401Z,210
2019-03-26T06:48:24.331Z,215
2019-03-26T06:49:34.248Z,220
2019-03-26T06:50:44.177Z,220
2019-03-26T06:51:54.093Z,220
2019-03-26T06:53:04.014Z,225
2019-03-26T06:54:13.931Z,225
2019-03-26T06:55:23.857Z,230
2019-03-26T06:56:33.775Z,230
2019-03-26T06:57:45.545Z,235
2019-03-26T06:58:55.462Z,240
2019-03-26T07:00:07.123Z,240
2019-03-26T07:01:17.187Z,245
2019-03-26T07:02:26.856Z,245
2019-03-26T07:03:36.875Z,245
2019-03-26T07:04:46.804Z,245
2019-03-26T07:05:56.720Z,245
2019-03-26T07:07:07.623Z,245
2019-03-26T07:08:17.567Z,250
2019-03-26T07:09:27.608Z,255
2019-03-26T07:10:37.027Z,260
2019-03-26T07:11:46.947Z,265
2019-03-26T07:12:56.871Z,265
2019-03-26T07:14:06.334Z,275
2019-03-26T07:15:16.358Z,285
2019-03-26T07:16:26.366Z,295
2019-03-26T07:17:36.924Z,300
2019-03-26T07:18:46.844Z,300
2019-03-26T07:19:56.785Z,305
2019-03-26T07:21:06.759Z,310
2019-03-26T07:22:16.675Z,310
2019-03-26T07:23:26.345Z,320
2019-03-26T07:24:36.276Z,320
2019-03-26T07:25:46.193Z,320
2019-03-26T07:26:56.147Z,320
2019-03-26T07:28:06.072Z,330
2019-03-26T07:29:15.993Z,340
2019-03-26T07:30:25.920Z,350
2019-03-26T07:31:35.888Z,360
2019-03-26T07:32:45.818Z,360
2019-03-26T07:33:55.492Z,355
2019-03-26T07:35:05.510Z,355
2019-03-26T07:36:15.186Z,355
2019-03-26T07:37:25.117Z,350
2019-03-26T07:38:35.154Z,345
2019-03-26T07:39:46.322Z,345
2019-03-26T07:40:56.252Z,350
2019-03-26T07:42:06.185Z,345
2019-03-26T07:43:16.104Z,345
2019-03-26T07:44:26.129Z,350
2019-03-26T07:45:36.054Z,355
2019-03-26T07:46:45.982Z,365
2019-03-26T07:47:55.666Z,370
2019-03-26T07:49:05.594Z,375
2019-03-26T07:50:18.816Z,375
2019-03-26T07:51:28.846Z,375
2019-03-26T07:52:38.795Z,380
2019-03-26T07:53:48.714Z,380
2019-03-26T07:54:58.644Z,390
2019-03-26T07:56:08.631Z,400
2019-03-26T07:57:18.552Z,405
2019-03-26T07:58:28.474Z,420
2019-03-26T07:59:38.477Z,430
2019-03-26T08:00:48.428Z,440
2019-03-26T08:01:58.350Z,455
2019-03-26T08:03:08.274Z,470
2019-03-26T08:04:19.809Z,460
2019-03-26T08:05:39.041Z,485
2019-03-26T08:06:49.060Z,480
2019-03-26T08:08:07.758Z,460
2019-03-26T08:09:17.992Z,455
2019-03-26T08:10:27.975Z,455
2019-03-26T08:11:37.913Z,450
2019-03-26T08:12:47.947Z,440
2019-03-26T08:13:58.006Z,430
2019-03-26T08:15:07.716Z,420
2019-03-26T08:16:17.723Z,405
2019-03-26T08:17:27.835Z,400
2019-03-26T08:18:37.778Z,390
2019-03-26T08:19:47.717Z,380
2019-03-26T08:20:59.956Z,370
2019-03-26T08:22:09.876Z,365
2019-03-26T08:23:19.823Z,355
2019-03-26T08:24:29.762Z,355
2019-03-26T08:25:41.270Z,345
2019-03-26T08:26:54.449Z,340
2019-03-26T08:28:07.461Z,335
2019-03-26T08:29:17.388Z,335
2019-03-26T08:30:27.307Z,335
2019-03-26T08:31:37.331Z,335
2019-03-26T08:32:47.255Z,345
2019-03-26T08:33:57.177Z,350
2019-03-26T08:35:07.106Z,365
2019-03-26T08:36:17.029Z,400
2019-03-26T08:37:27.117Z,380
2019-03-26T08:38:38.435Z,415
2019-03-26T08:39:48.368Z,400
2019-03-26T08:40:58.300Z,385
2019-03-26T08:42:08.227Z,420
2019-03-26T08:43:18.179Z,405
2019-03-26T08:44:28.107Z,415
2019-03-26T08:45:38.038Z,435
2019-03-26T08:46:51.105Z,420
2019-03-26T08:48:01.062Z,425
2019-03-26T08:49:13.998Z,395
2019-03-26T08:50:24.158Z,395
2019-03-26T08:51:33.841Z,390
2019-03-26T08:52:43.770Z,380
2019-03-26T08:53:53.686Z,360
2019-03-26T08:55:06.810Z,350
2019-03-26T08:56:16.781Z,360
2019-03-26T08:57:26.820Z,360
2019-03-26T08:58:36.663Z,350
2019-03-26T08:59:46.477Z,355
2019-03-26T09:00:56.427Z,365
2019-03-26T09:02:06.349Z,365
2019-03-26T09:03:16.389Z,345
2019-03-26T09:04:29.347Z,355
2019-03-26T09:05:39.030Z,355
2019-03-26T09:06:49.052Z,355
2019-03-26T09:07:58.980Z,365
2019-03-26T09:09:08.976Z,365
2019-03-26T09:10:18.899Z,365
2019-03-26T09:11:28.890Z,365
2019-03-26T09:12:42.010Z,380
2019-03-26T09:13:51.939Z,400
2019-03-26T09:15:01.864Z,405
2019-03-26T09:16:11.802Z,405
2019-03-26T09:17:24.594Z,410
2019-03-26T09:18:34.613Z,415
2019-03-26T09:19:44.546Z,425
2019-03-26T09:20:54.468Z,435
2019-03-26T09:22:04.397Z,430
2019-03-26T09:23:17.164Z,445
2019-03-26T09:24:27.137Z,455
2019-03-26T09:25:37.074Z,475
2019-03-26T09:26:46.992Z,490
2019-03-26T09:27:59.621Z,505
2019-03-26T09:29:09.301Z,520
2019-03-26T09:30:19.230Z,525
2019-03-26T09:31:29.164Z,545
2019-03-26T09:32:39.103Z,555
2019-03-26T09:33:49.025Z,565
2019-03-26T09:34:58.945Z,570
2019-03-26T09:36:08.873Z,565
2019-03-26T09:37:18.567Z,585
2019-03-26T09:38:41.136Z,585
2019-03-26T09:39:51.188Z,600
2019-03-26T09:41:01.220Z,630
2019-03-26T09:42:11.147Z,635
2019-03-26T09:43:21.078Z,645
2019-03-26T09:44:31.002Z,660
2019-03-26T09:45:40.926Z,655
2019-03-26T09:46:50.952Z,640
2019-03-26T09:48:00.880Z,635
2019-03-26T09:49:10.809Z,630
2019-03-26T09:50:20.729Z,615
2019-03-26T09:51:30.655Z,615
2019-03-26T09:52:40.581Z,610
2019-03-26T09:53:50.506Z,620
2019-03-26T09:55:00.438Z,625
2019-03-26T09:56:10.364Z,630
2019-03-26T09:57:20.348Z,640
2019-03-26T09:58:30.373Z,650
2019-03-26T09:59:40.376Z,665
2019-03-26T10:00:51.302Z,675
2019-03-26T10:02:01.347Z,680
2019-03-26T10:03:11.272Z,680
2019-03-26T10:04:21.233Z,685
2019-03-26T10:05:31.160Z,685
2019-03-26T10:06:41.091Z,680
2019-03-26T10:07:51.242Z,675
2019-03-26T10:09:02.488Z,680
2019-03-26T10:10:12.511Z,670
2019-03-26T10:11:22.435Z,670
2019-03-26T10:12:32.389Z,665
2019-03-26T10:13:43.711Z,660
2019-03-26T10:14:53.636Z,660
2019-03-26T10:16:03.625Z,665
2019-03-26T10:17:13.589Z,665
2019-03-26T10:18:23.532Z,670
2019-03-26T10:19:33.475Z,670
2019-03-26T10:20:43.402Z,665
2019-03-26T10:21:53.329Z,670
2019-03-26T10:23:03.262Z,670
2019-03-26T10:24:13.197Z,670
2019-03-26T10:25:23.121Z,675
2019-03-26T10:26:33.130Z,680
2019-03-26T10:27:44.745Z,685
2019-03-26T10:28:54.689Z,690
2019-03-26T10:30:05.953Z,695
2019-03-26T10:31:15.908Z,700
2019-03-26T10:32:25.580Z,700
2019-03-26T10:33:35.556Z,700
2019-03-26T10:34:46.262Z,705
2019-03-26T10:35:56.192Z,700
2019-03-26T10:37:06.122Z,700
2019-03-26T10:38:16.047Z,700
2019-03-26T10:39:26.081Z,700
2019-03-26T10:40:36.019Z,700
2019-03-26T10:41:45.960Z,705
2019-03-26T10:42:55.891Z,710
2019-03-26T10:44:05.826Z,710
2019-03-26T10:45:15.948Z,710
2019-03-26T10:46:25.877Z,710
2019-03-26T10:47:35.812Z,710
2019-03-26T10:48:45.746Z,710
2019-03-26T10:49:55.674Z,710
2019-03-26T10:51:05.654Z,710
2019-03-26T10:52:15.587Z,715
2019-03-26T10:53:25.585Z,720
2019-03-26T10:54:35.269Z,725
2019-03-26T10:55:45.198Z,730
2019-03-26T10:56:55.126Z,740
2019-03-26T10:58:05.056Z,745
2019-03-26T10:59:14.982Z,745
2019-03-26T11:00:24.904Z,750
2019-03-26T11:01:34.848Z,755
2019-03-26T11:02:44.779Z,755
2019-03-26T11:03:54.703Z,760
2019-03-26T11:05:04.633Z,770
2019-03-26T11:06:14.567Z,775
2019-03-26T11:07:24.518Z,785
2019-03-26T11:08:34.492Z,790
2019-03-26T11:09:44.454Z,795
2019-03-26T11:10:54.385Z,800
2019-03-26T11:12:04.311Z,805
2019-03-26T11:13:14.240Z,805
2019-03-26T11:14:24.161Z,830
2019-03-26T11:15:34.089Z,835
2019-03-26T11:16:44.014Z,845
2019-03-26T11:17:53.951Z,845
2019-03-26T11:19:03.878Z,845
2019-03-26T11:20:13.821Z,860
2019-03-26T11:21:23.771Z,865
2019-03-26T11:22:33.708Z,865
2019-03-26T11:23:43.393Z,870
2019-03-26T11:24:53.325Z,890
2019-03-26T11:26:03.394Z,900
2019-03-26T11:27:13.330Z,900
2019-03-26T11:28:23.268Z,905
2019-03-26T11:29:33.195Z,910
2019-03-26T11:30:42.906Z,915
2019-03-26T11:31:52.836Z,915
2019-03-26T11:33:02.776Z,920
2019-03-26T11:34:12.703Z,925
2019-03-26T11:35:22.628Z,915
2019-03-26T11:36:32.313Z,905
2019-03-26T11:37:41.995Z,890
2019-03-26T11:38:51.998Z,885
2019-03-26T11:40:01.955Z,885
2019-03-26T11:41:11.928Z,880
2019-03-26T11:42:21.866Z,885
2019-03-26T11:43:31.846Z,880
2019-03-26T11:44:41.786Z,880
2019-03-26T11:45:51.726Z,880
2019-03-26T11:47:01.736Z,880
2019-03-26T11:48:11.679Z,895
2019-03-26T11:49:21.613Z,900
2019-03-26T11:50:31.542Z,890
2019-03-26T11:51:41.466Z,885
2019-03-26T11:52:51.397Z,885
2019-03-26T11:54:01.331Z,875
2019-03-26T11:55:11.269Z,855
2019-03-26T11:56:21.205Z,820
2019-03-26T11:57:30.890Z,800
2019-03-26T11:58:40.820Z,785
2019-03-26T11:59:50.766Z,780
2019-03-26T12:01:00.758Z,780
2019-03-26T12:02:10.729Z,785
2019-03-26T12:03:20.694Z,800
2019-03-26T12:04:30.657Z,815
2019-03-26T12:05:40.613Z,815
2019-03-26T12:06:50.616Z,815
2019-03-26T12:08:00.565Z,815
2019-03-26T12:09:10.500Z,810
2019-03-26T12:10:20.433Z,805
2019-03-26T12:11:30.361Z,800
2019-03-26T12:12:40.391Z,800
2019-03-26T12:13:50.319Z,805
2019-03-26T12:15:00.332Z,805
2019-03-26T12:16:10.028Z,800
2019-03-26T12:17:22.163Z,790
2019-03-26T12:18:32.155Z,785
2019-03-26T12:19:42.098Z,775
2019-03-26T12:20:52.026Z,780
2019-03-26T12:22:01.957Z,765
2019-03-26T12:23:11.902Z,760
2019-03-26T12:24:21.605Z,755
2019-03-26T12:25:31.548Z,750
2019-03-26T12:26:41.307Z,750
2019-03-26T12:27:51.269Z,745
2019-03-26T12:29:00.963Z,745
2019-03-26T12:30:10.911Z,745
2019-03-26T12:31:20.603Z,745
2019-03-26T12:32:30.540Z,745
2019-03-26T12:33:40.219Z,760
2019-03-26T12:34:50.173Z,770
2019-03-26T12:36:00.172Z,795
2019-03-26T12:37:10.154Z,805
2019-03-26T12:38:20.089Z,800
2019-03-26T12:39:30.022Z,795
2019-03-26T12:40:39.963Z,795
2019-03-26T12:41:50.009Z,810
2019-03-26T12:42:59.952Z,815
2019-03-26T12:44:09.985Z,800
2019-03-26T12:45:19.997Z,800
2019-03-26T12:46:29.944Z,825
2019-03-26T12:47:39.887Z,855
2019-03-26T12:48:49.575Z,855
2019-03-26T12:49:59.512Z,860
2019-03-26T12:51:09.440Z,865
2019-03-26T12:52:19.384Z,900
2019-03-26T12:53:29.378Z,895
2019-03-26T12:54:39.309Z,890
2019-03-26T12:55:49.251Z,925
2019-03-26T12:56:59.180Z,945
2019-03-26T12:58:09.126Z,980
2019-03-26T12:59:18.801Z,1010
2019-03-26T13:00:28.811Z,985
2019-03-26T13:01:38.751Z,1045
2019-03-26T13:02:48.680Z,1095
2019-03-26T13:04:11.612Z,1075
2019-03-26T13:05:23.178Z,1115
2019-03-26T13:06:33.303Z,1145
2019-03-26T13:07:43.235Z,1175
2019-03-26T13:08:53.164Z,1185
2019-03-26T13:10:15.790Z,1215
2019-03-26T13:11:26.836Z,1285
2019-03-26T13:12:36.767Z,1180
2019-03-26T13:13:46.697Z,1165
2019-03-26T13:14:59.291Z,1210
2019-03-26T13:16:09.459Z,1225
2019-03-26T13:17:19.393Z,1115
2019-03-26T13:18:29.400Z,1165
2019-03-26T13:19:39.333Z,1070
2019-03-26T13:20:50.362Z,980
2019-03-26T13:22:00.295Z,970
2019-03-26T13:23:10.233Z,980
2019-03-26T13:24:21.213Z,1050
2019-03-26T13:25:31.146Z,1050
2019-03-26T13:26:41.074Z,1080
2019-03-26T13:27:51.062Z,990
2019-03-26T13:29:00.993Z,995
2019-03-26T13:30:10.947Z,1060
2019-03-26T13:31:20.879Z,1145
2019-03-26T13:32:30.827Z,1035
2019-03-26T13:33:40.761Z,1095
2019-03-26T13:34:50.697Z,1125
2019-03-26T13:36:00.672Z,1070
2019-03-26T13:37:10.605Z,910
2019-03-26T13:38:20.549Z,775
2019-03-26T13:39:30.576Z,760
2019-03-26T13:40:40.254Z,755
2019-03-26T13:41:50.192Z,720
2019-03-26T13:43:00.132Z,690
2019-03-26T13:44:10.067Z,690
2019-03-26T13:45:20.108Z,705
2019-03-26T13:46:30.059Z,700
2019-03-26T13:47:39.990Z,700
2019-03-26T13:48:49.925Z,685
2019-03-26T13:49:59.870Z,670
2019-03-26T13:51:09.831Z,660
2019-03-26T13:52:19.759Z,655
2019-03-26T13:53:29.701Z,645
2019-03-26T13:54:39.639Z,635
2019-03-26T13:55:49.579Z,630
2019-03-26T13:56:59.513Z,615
2019-03-26T13:58:09.442Z,605
2019-03-26T13:59:19.381Z,590
2019-03-26T14:00:29.314Z,565
2019-03-26T14:01:39.243Z,550
2019-03-26T14:02:49.229Z,535
2019-03-26T14:03:59.162Z,525
2019-03-26T14:05:09.100Z,515
2019-03-26T14:06:18.778Z,510
2019-03-26T14:07:28.710Z,505
2019-03-26T14:08:38.646Z,505
2019-03-26T14:09:48.575Z,510
2019-03-26T14:10:58.514Z,510
2019-03-26T14:12:08.449Z,515
2019-03-26T14:13:18.394Z,510
2019-03-26T14:14:28.428Z,495
2019-03-26T14:15:38.358Z,480
2019-03-26T14:16:48.284Z,460
2019-03-26T14:17:58.208Z,445
2019-03-26T14:19:08.134Z,440
2019-03-26T14:20:18.120Z,430
2019-03-26T14:21:28.058Z,425
2019-03-26T14:22:37.978Z,425
2019-03-26T14:23:47.656Z,425
2019-03-26T14:24:57.584Z,425
2019-03-26T14:26:07.521Z,420
2019-03-26T14:27:17.450Z,420
2019-03-26T14:28:27.398Z,410
2019-03-26T14:29:37.341Z,400
2019-03-26T14:30:47.274Z,385
2019-03-26T14:31:57.205Z,360
2019-03-26T14:33:07.133Z,335
2019-03-26T14:34:16.807Z,320
2019-03-26T14:35:26.737Z,300
2019-03-26T14:36:36.674Z,280
2019-03-26T14:38:00.240Z,265
2019-03-26T14:39:10.168Z,260
2019-03-26T14:40:19.844Z,255
2019-03-26T14:41:29.765Z,250
2019-03-26T14:42:39.693Z,245
2019-03-26T14:43:49.618Z,240
2019-03-26T14:44:59.869Z,230
2019-03-26T14:46:09.549Z,225
2019-03-26T14:47:19.488Z,230
2019-03-26T14:48:29.515Z,220
2019-03-26T14:49:39.441Z,220
2019-03-26T14:50:49.373Z,220
2019-03-26T14:51:59.306Z,220
2019-03-26T14:53:09.238Z,225
2019-03-26T14:54:18.955Z,225
2019-03-26T14:55:28.879Z,230
2019-03-26T14:56:38.818Z,235
2019-03-26T14:57:48.757Z,240
2019-03-26T14:58:58.691Z,240
2019-03-26T15:00:08.746Z,245
2019-03-26T15:01:18.699Z,240
2019-03-26T15:02:28.624Z,250
2019-03-26T15:03:38.554Z,245
2019-03-26T15:04:48.476Z,250
2019-03-26T15:05:58.494Z,250
2019-03-26T15:07:08.422Z,255
2019-03-26T15:08:18.350Z,265
2019-03-26T15:09:28.315Z,275
2019-03-26T15:10:38.255Z,280
2019-03-26T15:11:48.227Z,285
2019-03-26T15:12:58.167Z,290
2019-03-26T15:14:08.089Z,295
2019-03-26T15:15:18.021Z,290
2019-03-26T15:16:28.004Z,290
2019-03-26T15:17:38.034Z,285
2019-03-26T15:18:47.968Z,285
2019-03-26T15:19:59.921Z,280
2019-03-26T15:21:09.844Z,275
2019-03-26T15:22:19.768Z,265
2019-03-26T15:23:29.702Z,260
2019-03-26T15:24:39.631Z,250
2019-03-26T15:25:49.564Z,250
2019-03-26T15:26:59.252Z,245
2019-03-26T15:28:11.644Z,245
2019-03-26T15:29:21.847Z,245
2019-03-26T15:30:31.775Z,250
2019-03-26T15:31:41.699Z,260
2019-03-26T15:32:51.652Z,275
2019-03-26T15:34:01.340Z,290
2019-03-26T15:35:11.300Z,315
2019-03-26T15:36:21.225Z,360
2019-03-26T15:37:31.154Z,420
2019-03-26T15:38:41.087Z,505
2019-03-26T15:39:51.007Z,550
2019-03-26T15:41:00.927Z,600
2019-03-26T15:42:10.852Z,590
2019-03-26T15:43:20.777Z,630
2019-03-26T15:44:30.704Z,605
2019-03-26T15:45:40.625Z,540
2019-03-26T15:46:50.446Z,480
2019-03-26T15:48:00.377Z,455
2019-03-26T15:49:10.058Z,475
2019-03-26T15:50:19.988Z,460
2019-03-26T15:51:29.909Z,450
2019-03-26T15:52:42.207Z,445
2019-03-26T15:53:52.073Z,440
2019-03-26T15:55:02.008Z,420
2019-03-26T15:56:11.934Z,410
2019-03-26T15:57:21.863Z,405
2019-03-26T15:58:31.825Z,405
2019-03-26T15:59:41.500Z,405
2019-03-26T16:00:51.443Z,395
2019-03-26T16:02:01.378Z,370
2019-03-26T16:03:11.315Z,345
2019-03-26T16:04:21.297Z,310
2019-03-26T16:05:31.223Z,285
2019-03-26T16:06:41.152Z,260
2019-03-26T16:07:51.084Z,240
2019-03-26T16:09:01.010Z,220
2019-03-26T16:10:10.939Z,200
2019-03-26T16:11:34.587Z,190
2019-03-26T16:12:50.453Z,175
2019-03-26T16:14:00.380Z,160
2019-03-26T16:15:10.318Z,155
2019-03-26T16:16:20.266Z,150
2019-03-26T16:17:30.196Z,150
2019-03-26T16:18:40.124Z,145
2019-03-26T16:19:50.056Z,145
2019-03-26T16:21:00.101Z,140
2019-03-26T16:22:10.032Z,135
2019-03-26T16:23:19.964Z,130
2019-03-26T16:24:29.885Z,125
2019-03-26T16:25:39.812Z,115
2019-03-26T16:26:49.733Z,115
2019-03-26T16:28:00.354Z,110